createdAt,value
2019-02-28T00:03:33.493Z,-1.6
2019-02-28T00:08:29.488Z,-2.5
2019-02-28T00:13:26.055Z,-1.7
2019-02-28T00:18:22.901Z,-2.1
2019-02-28T00:23:21.929Z,-1.5
2019-02-28T00:28:18.807Z,-1.6
2019-02-28T00:33:14.704Z,-2.1
2019-02-28T00:38:11.248Z,-2
2019-02-28T00:43:07.862Z,-1.8
2019-02-28T00:48:04.035Z,-2.5
2019-02-28T00:53:00.778Z,-2.4
2019-02-28T00:57:56.689Z,-2.2
2019-02-28T01:02:53.676Z,-2.5
2019-02-28T01:07:50.071Z,-2.1
2019-02-28T01:12:46.492Z,-2.2
2019-02-28T01:17:43.093Z,-2.1
2019-02-28T01:22:39.444Z,-2.2
2019-02-28T01:27:36.101Z,-2.1
2019-02-28T01:32:32.828Z,-1.5
2019-02-28T01:37:29.141Z,-2.2
2019-02-28T01:42:25.628Z,-1.5
2019-02-28T01:47:22.328Z,-1.4
2019-02-28T01:52:19.058Z,-1.9
2019-02-28T01:57:15.736Z,-2.2
2019-02-28T02:02:12.106Z,-2.3
2019-02-28T02:07:08.162Z,-2.7
2019-02-28T02:12:04.451Z,-3
2019-02-28T02:17:01.032Z,-3.4
2019-02-28T02:21:57.916Z,-3.6
2019-02-28T02:26:54.650Z,-3.6
2019-02-28T02:31:51.423Z,-3.7
2019-02-28T02:36:52.928Z,-3
2019-02-28T02:41:49.296Z,-3.7
2019-02-28T02:46:45.942Z,-3.2
2019-02-28T02:51:48.756Z,-4
2019-02-28T02:56:45.648Z,-3.7
2019-02-28T03:01:42.087Z,-4.1
2019-02-28T03:06:38.785Z,-3.6
2019-02-28T03:11:35.243Z,-3.2
2019-02-28T03:16:33.254Z,-3.4
2019-02-28T03:21:30.326Z,-3.4
2019-02-28T03:26:26.672Z,-4.1
2019-02-28T03:31:23.196Z,-4.3
2019-02-28T03:36:19.812Z,-3.7
2019-02-28T03:41:17.864Z,-4.3
2019-02-28T03:46:14.436Z,-4.2
2019-02-28T03:51:10.884Z,-4.3
2019-02-28T03:56:07.341Z,-3.7
2019-02-28T04:01:08.541Z,-3.8
2019-02-28T04:06:04.913Z,-4.4
2019-02-28T04:11:01.448Z,-3.7
2019-02-28T04:16:08.228Z,-4.7
2019-02-28T04:21:04.079Z,-4.7
2019-02-28T04:26:00.320Z,-4
2019-02-28T04:30:56.678Z,-4.9
2019-02-28T04:35:53.321Z,-4.7
2019-02-28T04:40:54.977Z,-5
2019-02-28T04:45:51.355Z,-4.4
2019-02-28T04:50:48.047Z,-4.3
2019-02-28T04:55:44.502Z,-4.4
2019-02-28T05:00:41.056Z,-4.3
2019-02-28T05:05:37.590Z,-4.5
2019-02-28T05:10:34.535Z,-4.7
2019-02-28T05:15:30.948Z,-4
2019-02-28T05:20:27.149Z,-3.9
2019-02-28T05:25:23.778Z,-4.2
2019-02-28T05:30:20.697Z,-4.2
2019-02-28T05:35:17.482Z,-4
2019-02-28T05:40:14.287Z,-3.8
2019-02-28T05:45:14.074Z,-3.2
2019-02-28T05:50:15.072Z,-3.3
2019-02-28T05:55:12.282Z,-3.3
2019-02-28T06:00:10.497Z,1.7
2019-02-28T06:05:08.353Z,-1.5
2019-02-28T06:10:09.584Z,0.9
2019-02-28T06:15:04.139Z,-0.1
2019-02-28T06:20:00.718Z,-1.1
2019-02-28T06:24:57.170Z,-0.8
2019-02-28T06:29:53.210Z,-1.4
2019-02-28T06:34:49.552Z,-1.5
2019-02-28T06:39:46.923Z,-0.9
2019-02-28T06:44:44.278Z,1
2019-02-28T06:49:41.779Z,3.6
2019-02-28T06:54:39.827Z,0.2
2019-02-28T06:59:36.117Z,-0.3
2019-02-28T07:04:35.301Z,0.2
2019-02-28T07:09:33.529Z,0.2
2019-02-28T07:14:32.530Z,1.6
2019-02-28T07:19:29.306Z,1.1
2019-02-28T07:24:25.498Z,1.5
2019-02-28T07:29:22.340Z,2.2
2019-02-28T07:34:20.856Z,2.3
2019-02-28T07:39:19.781Z,3.1
2019-02-28T07:44:20.982Z,3.3
2019-02-28T07:49:17.572Z,3.6
2019-02-28T07:54:15.795Z,3.7
2019-02-28T07:59:12.790Z,4.5
2019-02-28T08:04:09.577Z,4.4
2019-02-28T08:09:07.064Z,5.2
2019-02-28T08:14:03.889Z,5.2
2019-02-28T08:19:00.179Z,4.7
2019-02-28T08:23:57.215Z,5.5
2019-02-28T08:28:53.644Z,4.8
2019-02-28T08:33:51.733Z,6
2019-02-28T08:38:48.223Z,5.6
2019-02-28T08:43:47.743Z,5.5
2019-02-28T08:48:44.646Z,7
2019-02-28T08:53:41.693Z,7.1
2019-02-28T08:58:38.343Z,6.5
2019-02-28T09:03:35.194Z,7.1
2019-02-28T09:08:31.416Z,5.2
2019-02-28T09:13:28.414Z,6.7
2019-02-28T09:18:25.924Z,8.6
2019-02-28T09:23:23.515Z,8.8
2019-02-28T09:28:21.594Z,8.6
2019-02-28T09:33:19.212Z,7.9
2019-02-28T09:38:20.688Z,8.3
2019-02-28T09:43:16.247Z,7.9
2019-02-28T09:48:13.180Z,8
2019-02-28T09:53:09.742Z,9.3
2019-02-28T09:58:05.453Z,7.9
2019-02-28T10:03:02.230Z,8
2019-02-28T10:08:02.724Z,9.4
2019-02-28T10:12:57.509Z,8.3
2019-02-28T10:17:53.990Z,8.2
2019-02-28T10:22:50.789Z,7.8
2019-02-28T10:27:48.082Z,8.4
2019-02-28T10:32:44.306Z,9.2
2019-02-28T10:37:40.623Z,8.2
2019-02-28T10:42:40.217Z,9.6
2019-02-28T10:47:36.402Z,9.5
2019-02-28T10:52:32.113Z,9.4
2019-02-28T10:57:28.653Z,8.8
2019-02-28T11:02:27.068Z,10.6
2019-02-28T11:07:22.351Z,10.2
2019-02-28T11:12:19.971Z,10.1
2019-02-28T11:17:19.914Z,10.1
2019-02-28T11:22:16.742Z,10.1
2019-02-28T11:27:16.034Z,10.1
2019-02-28T11:32:19.215Z,10.8
2019-02-28T11:37:15.315Z,10.3
2019-02-28T11:42:11.389Z,9.8
2019-02-28T11:47:11.041Z,10.9
2019-02-28T11:52:08.112Z,11.9
2019-02-28T11:57:06.603Z,11.7
2019-02-28T12:02:03.016Z,10.9
2019-02-28T12:07:00.833Z,11.7
2019-02-28T12:11:57.030Z,10.6
2019-02-28T12:16:53.863Z,12.8
2019-02-28T12:21:50.273Z,11.1
2019-02-28T12:26:49.276Z,12.6
2019-02-28T12:31:49.155Z,12.4
2019-02-28T12:36:46.274Z,12
2019-02-28T12:41:45.666Z,11.6
2019-02-28T12:46:43.388Z,11.9
2019-02-28T12:51:40.305Z,11.9
2019-02-28T12:56:38.197Z,13.6
2019-02-28T13:01:34.417Z,12.2
2019-02-28T13:06:31.410Z,13
2019-02-28T13:11:27.898Z,13.1
2019-02-28T13:16:24.822Z,13.4
2019-02-28T13:21:22.222Z,12.9
2019-02-28T13:26:19.342Z,11
2019-02-28T13:31:16.333Z,13.8
2019-02-28T13:36:12.991Z,13.4
2019-02-28T13:41:09.978Z,13.1
2019-02-28T13:46:06.791Z,13.1
2019-02-28T13:51:03.327Z,13
2019-02-28T13:56:00.379Z,12.4
2019-02-28T14:00:57.293Z,12.2
2019-02-28T14:05:54.376Z,13.2
2019-02-28T14:10:50.927Z,12
2019-02-28T14:15:51.352Z,12.7
2019-02-28T14:20:49.145Z,11.8
2019-02-28T14:25:45.560Z,11.8
2019-02-28T14:30:42.223Z,11.1
2019-02-28T14:35:39.047Z,11.2
2019-02-28T14:40:35.885Z,11
2019-02-28T14:45:32.698Z,11.2
2019-02-28T14:50:29.267Z,9.9
2019-02-28T14:55:29.216Z,10.8
2019-02-28T15:00:28.734Z,10.3
2019-02-28T15:05:25.136Z,10.4
2019-02-28T15:10:21.753Z,10
2019-02-28T15:15:18.978Z,10.1
2019-02-28T15:20:15.401Z,9.6
2019-02-28T15:25:12.143Z,9.4
2019-02-28T15:30:11.042Z,8.6
2019-02-28T15:35:07.325Z,9
2019-02-28T15:40:03.615Z,8.2
2019-02-28T15:45:03.482Z,8
2019-02-28T15:50:00.650Z,7.7
2019-02-28T15:55:01.916Z,7
2019-02-28T15:59:58.663Z,7.6
2019-02-28T16:04:57.609Z,7
2019-02-28T16:10:02.423Z,6.2
2019-02-28T16:14:58.853Z,6.4
2019-02-28T16:19:56.181Z,6.1
2019-02-28T16:24:53.507Z,6
2019-02-28T16:29:52.211Z,5.7
2019-02-28T16:34:51.988Z,5.5
2019-02-28T16:39:49.778Z,5.3
2019-02-28T16:44:46.182Z,5
2019-02-28T16:49:44.384Z,4.7
2019-02-28T16:54:41.115Z,3.7
2019-02-28T16:59:37.913Z,4.7
2019-02-28T17:04:35.269Z,4.9
2019-02-28T17:09:31.559Z,4.4
2019-02-28T17:14:29.358Z,7.1
2019-02-28T17:19:28.506Z,8.1
2019-02-28T17:24:26.970Z,7.2
2019-02-28T17:29:25.096Z,6.4
2019-02-28T17:34:24.274Z,6.2
2019-02-28T17:39:20.635Z,5.1
2019-02-28T17:44:17.184Z,4.1
2019-02-28T17:49:14.714Z,5.5
2019-02-28T17:54:11.773Z,5.8
2019-02-28T17:59:08.219Z,5.1
2019-02-28T18:04:04.649Z,3.5
2019-02-28T18:09:01.668Z,3.6
2019-02-28T18:13:58.070Z,3.9
2019-02-28T18:18:55.279Z,4.3
2019-02-28T18:23:51.851Z,4
2019-02-28T18:28:48.519Z,4.2
2019-02-28T18:33:45.688Z,3.2
2019-02-28T18:38:41.958Z,3.2
2019-02-28T18:43:40.354Z,3.3
2019-02-28T18:48:37.920Z,2
2019-02-28T18:53:34.308Z,2.7
2019-02-28T18:58:31.043Z,2.5
2019-02-28T19:03:28.116Z,2.7
2019-02-28T19:08:25.110Z,2.9
2019-02-28T19:13:21.752Z,2.7
2019-02-28T19:18:18.468Z,2.8
2019-02-28T19:23:14.910Z,2
2019-02-28T19:28:12.001Z,2.1
2019-02-28T19:33:08.538Z,2.4
2019-02-28T19:38:05.244Z,2.2
2019-02-28T19:43:02.128Z,2
2019-02-28T19:47:58.850Z,2.1
2019-02-28T19:52:55.938Z,2
2019-02-28T19:57:52.760Z,1.2
2019-02-28T20:02:49.761Z,2.2
2019-02-28T20:07:45.976Z,2.2
2019-02-28T20:12:42.696Z,2.2
2019-02-28T20:17:39.719Z,2.6
2019-02-28T20:22:36.331Z,2.4
2019-02-28T20:27:32.821Z,1.4
2019-02-28T20:32:29.384Z,1.8
2019-02-28T20:37:26.649Z,2.7
2019-02-28T20:42:23.461Z,3.5
2019-02-28T20:47:20.495Z,4.3
2019-02-28T20:52:16.393Z,2.6
2019-02-28T20:57:12.804Z,1.5
2019-02-28T21:02:09.804Z,2.4
2019-02-28T21:07:06.393Z,2.7
2019-02-28T21:12:03.064Z,2.2
2019-02-28T21:16:58.962Z,0.8
2019-02-28T21:21:55.670Z,0.9
2019-02-28T21:26:52.977Z,1.6
2019-02-28T21:31:49.435Z,0.6
2019-02-28T21:36:46.200Z,1.3
2019-02-28T21:41:43.341Z,0.9
2019-02-28T21:46:40.012Z,0.6
2019-02-28T21:51:36.889Z,0.5
2019-02-28T21:56:34.120Z,1.6
2019-02-28T22:01:31.559Z,2.3
2019-02-28T22:06:27.955Z,2.1
2019-02-28T22:11:24.325Z,1.6
2019-02-28T22:16:21.410Z,0.5
2019-02-28T22:21:17.727Z,0
2019-02-28T22:26:14.717Z,0.7
2019-02-28T22:31:10.933Z,0.3
2019-02-28T22:36:06.995Z,-0.3
2019-02-28T22:41:03.778Z,0.5
2019-02-28T22:46:00.657Z,-0.4
2019-02-28T22:50:57.353Z,0.1
2019-02-28T22:55:54.207Z,0.1
2019-02-28T23:00:51.138Z,0.3
2019-02-28T23:05:48.198Z,0.5
2019-02-28T23:10:44.627Z,-0.3
2019-02-28T23:15:41.788Z,-0.2
2019-02-28T23:20:38.686Z,0.2
2019-02-28T23:25:34.843Z,-0.2
2019-02-28T23:30:31.767Z,-0.5
2019-02-28T23:35:29.175Z,-0.6
2019-02-28T23:40:25.932Z,-0.7
2019-02-28T23:45:22.493Z,-0.7
2019-02-28T23:50:19.241Z,-0.9
2019-02-28T23:55:15.575Z,-0.2
